sensor_id;sensor_type;location;lat;lon;timestamp;pressure;altitude;pressure_sealevel;temperature;humidity
16793;BME280;8513;42.662;23.350;2023-04-20T00:00:04;94552.47;;;11.84;50.99
16793;BME280;8513;42.662;23.350;2023-04-20T00:02:36;94553.44;;;11.91;50.90
16793;BME280;8513;42.662;23.350;2023-04-20T00:05:03;94553.28;;;11.93;50.64
16793;BME280;8513;42.662;23.350;2023-04-20T00:07:28;94543.56;;;11.85;51.06
16793;BME280;8513;42.662;23.350;2023-04-20T00:09:54;94537.31;;;11.78;51.02
16793;BME280;8513;42.662;23.350;2023-04-20T00:12:19;94540.91;;;11.85;51.29
16793;BME280;8513;42.662;23.350;2023-04-20T00:14:45;94535.34;;;11.88;50.71
16793;BME280;8513;42.662;23.350;2023-04-20T00:17:10;94534.63;;;11.95;50.97
16793;BME280;8513;42.662;23.350;2023-04-20T00:19:36;94531.72;;;11.89;50.70
16793;BME280;8513;42.662;23.350;2023-04-20T00:22:01;94532.00;;;11.95;50.73
16793;BME280;8513;42.662;23.350;2023-04-20T00:24:26;94527.41;;;11.97;51.61
16793;BME280;8513;42.662;23.350;2023-04-20T00:26:52;94526.47;;;11.89;51.93
16793;BME280;8513;42.662;23.350;2023-04-20T00:29:19;94524.59;;;11.98;51.76
16793;BME280;8513;42.662;23.350;2023-04-20T00:31:44;94526.34;;;11.66;52.55
16793;BME280;8513;42.662;23.350;2023-04-20T00:34:10;94520.41;;;11.64;52.64
16793;BME280;8513;42.662;23.350;2023-04-20T00:36:35;94523.78;;;11.50;53.17
16793;BME280;8513;42.662;23.350;2023-04-20T00:39:01;94522.63;;;11.53;53.35
16793;BME280;8513;42.662;23.350;2023-04-20T00:41:26;94515.09;;;11.41;53.51
16793;BME280;8513;42.662;23.350;2023-04-20T00:43:52;94525.09;;;11.46;53.61
16793;BME280;8513;42.662;23.350;2023-04-20T00:46:19;94520.59;;;11.63;53.34
16793;BME280;8513;42.662;23.350;2023-04-20T00:48:45;94524.56;;;11.59;53.54
16793;BME280;8513;42.662;23.350;2023-04-20T00:51:11;94529.81;;;11.59;53.73
16793;BME280;8513;42.662;23.350;2023-04-20T00:53:37;94518.97;;;11.54;54.11
16793;BME280;8513;42.662;23.350;2023-04-20T00:56:03;94516.25;;;11.78;53.49
16793;BME280;8513;42.662;23.350;2023-04-20T00:58:30;94514.50;;;11.62;53.01
16793;BME280;8513;42.662;23.350;2023-04-20T01:00:57;94518.44;;;11.66;52.91
16793;BME280;8513;42.662;23.350;2023-04-20T01:03:22;94518.25;;;11.68;53.25
16793;BME280;8513;42.662;23.350;2023-04-20T01:05:48;94517.44;;;11.67;53.07
16793;BME280;8513;42.662;23.350;2023-04-20T01:08:13;94514.06;;;11.51;53.62
16793;BME280;8513;42.662;23.350;2023-04-20T01:10:39;94520.47;;;11.48;53.57
16793;BME280;8513;42.662;23.350;2023-04-20T01:13:04;94508.38;;;11.31;54.08
16793;BME280;8513;42.662;23.350;2023-04-20T01:15:30;94509.91;;;11.56;53.52
16793;BME280;8513;42.662;23.350;2023-04-20T01:17:55;94516.06;;;11.40;54.11
16793;BME280;8513;42.662;23.350;2023-04-20T01:20:22;94514.25;;;11.41;54.18
16793;BME280;8513;42.662;23.350;2023-04-20T01:22:51;94522.78;;;11.51;54.17
16793;BME280;8513;42.662;23.350;2023-04-20T01:25:20;94514.47;;;11.23;55.25
16793;BME280;8513;42.662;23.350;2023-04-20T01:27:46;94522.47;;;11.38;54.52
16793;BME280;8513;42.662;23.350;2023-04-20T01:30:12;94518.34;;;11.43;54.28
16793;BME280;8513;42.662;23.350;2023-04-20T01:32:39;94525.59;;;11.50;53.90
16793;BME280;8513;42.662;23.350;2023-04-20T01:35:05;94515.94;;;11.34;54.58
16793;BME280;8513;42.662;23.350;2023-04-20T01:37:31;94512.66;;;11.23;54.91
16793;BME280;8513;42.662;23.350;2023-04-20T01:39:56;94506.88;;;11.36;54.87
16793;BME280;8513;42.662;23.350;2023-04-20T01:42:22;94506.88;;;11.36;54.54
16793;BME280;8513;42.662;23.350;2023-04-20T01:44:48;94511.28;;;11.36;54.87
16793;BME280;8513;42.662;23.350;2023-04-20T01:47:14;94511.25;;;11.52;54.25
16793;BME280;8513;42.662;23.350;2023-04-20T01:49:39;94504.22;;;11.44;54.25
16793;BME280;8513;42.662;23.350;2023-04-20T01:52:05;94504.88;;;11.30;54.35
16793;BME280;8513;42.662;23.350;2023-04-20T01:54:31;94501.91;;;11.33;54.22
16793;BME280;8513;42.662;23.350;2023-04-20T01:56:56;94506.56;;;11.31;54.66
16793;BME280;8513;42.662;23.350;2023-04-20T01:59:22;94501.91;;;11.33;53.84
16793;BME280;8513;42.662;23.350;2023-04-20T02:01:48;94502.59;;;11.27;54.33
16793;BME280;8513;42.662;23.350;2023-04-20T02:04:13;94500.97;;;11.26;54.25
16793;BME280;8513;42.662;23.350;2023-04-20T02:06:39;94493.22;;;11.24;54.16
16793;BME280;8513;42.662;23.350;2023-04-20T02:09:04;94499.81;;;11.29;54.18
16793;BME280;8513;42.662;23.350;2023-04-20T02:11:30;94491.25;;;11.26;53.97
16793;BME280;8513;42.662;23.350;2023-04-20T02:13:55;94496.53;;;11.26;54.07
16793;BME280;8513;42.662;23.350;2023-04-20T02:16:22;94492.88;;;11.27;53.93
16793;BME280;8513;42.662;23.350;2023-04-20T02:18:48;94495.19;;;11.22;54.38
16793;BME280;8513;42.662;23.350;2023-04-20T02:21:13;94495.22;;;11.14;54.70
16793;BME280;8513;42.662;23.350;2023-04-20T02:23:39;94498.34;;;11.26;55.11
16793;BME280;8513;42.662;23.350;2023-04-20T02:26:05;94508.84;;;11.34;54.30
16793;BME280;8513;42.662;23.350;2023-04-20T02:28:30;94496.56;;;11.10;55.05
16793;BME280;8513;42.662;23.350;2023-04-20T02:30:56;94496.88;;;11.15;55.25
16793;BME280;8513;42.662;23.350;2023-04-20T02:33:21;94497.38;;;11.11;55.33
16793;BME280;8513;42.662;23.350;2023-04-20T02:35:47;94494.38;;;11.22;55.16
16793;BME280;8513;42.662;23.350;2023-04-20T02:38:12;94489.63;;;11.25;55.26
16793;BME280;8513;42.662;23.350;2023-04-20T02:40:38;94498.16;;;11.19;55.50
16793;BME280;8513;42.662;23.350;2023-04-20T02:43:04;94498.69;;;11.23;55.83
16793;BME280;8513;42.662;23.350;2023-04-20T02:45:31;94499.56;;;10.91;56.70
16793;BME280;8513;42.662;23.350;2023-04-20T02:47:56;94502.66;;;11.02;56.20
16793;BME280;8513;42.662;23.350;2023-04-20T02:50:23;94494.09;;;11.00;55.96
16793;BME280;8513;42.662;23.350;2023-04-20T02:52:48;94506.28;;;11.10;55.94
16793;BME280;8513;42.662;23.350;2023-04-20T02:55:14;94502.00;;;10.92;56.22
16793;BME280;8513;42.662;23.350;2023-04-20T02:57:39;94504.28;;;11.03;55.83
16793;BME280;8513;42.662;23.350;2023-04-20T03:00:05;94502.66;;;10.94;56.02
16793;BME280;8513;42.662;23.350;2023-04-20T03:02:33;94497.38;;;11.11;56.02
16793;BME280;8513;42.662;23.350;2023-04-20T03:05:01;94499.00;;;11.20;55.38
16793;BME280;8513;42.662;23.350;2023-04-20T03:07:27;94498.50;;;11.16;54.77
16793;BME280;8513;42.662;23.350;2023-04-20T03:09:53;94505.59;;;11.16;55.05
16793;BME280;8513;42.662;23.350;2023-04-20T03:12:18;94488.47;;;11.20;54.74
16793;BME280;8513;42.662;23.350;2023-04-20T03:14:44;94487.81;;;11.26;54.38
16793;BME280;8513;42.662;23.350;2023-04-20T03:17:10;94491.94;;;11.20;54.40
16793;BME280;8513;42.662;23.350;2023-04-20T03:19:36;94492.25;;;11.25;54.29
16793;BME280;8513;42.662;23.350;2023-04-20T03:22:01;94493.03;;;11.34;53.82
16793;BME280;8513;42.662;23.350;2023-04-20T03:24:26;94500.94;;;11.34;54.03
16793;BME280;8513;42.662;23.350;2023-04-20T03:26:52;94493.38;;;11.31;53.67
16793;BME280;8513;42.662;23.350;2023-04-20T03:29:17;94490.91;;;11.30;53.63
16793;BME280;8513;42.662;23.350;2023-04-20T03:31:43;94496.69;;;11.17;54.55
16793;BME280;8513;42.662;23.350;2023-04-20T03:34:08;94496.88;;;11.15;54.42
16793;BME280;8513;42.662;23.350;2023-04-20T03:36:34;94486.84;;;11.19;54.14
16793;BME280;8513;42.662;23.350;2023-04-20T03:39:00;94496.34;;;11.20;54.69
16793;BME280;8513;42.662;23.350;2023-04-20T03:41:25;94489.47;;;11.19;54.61
16793;BME280;8513;42.662;23.350;2023-04-20T03:43:51;94492.28;;;11.17;54.42
16793;BME280;8513;42.662;23.350;2023-04-20T03:46:16;94498.53;;;11.08;55.00
16793;BME280;8513;42.662;23.350;2023-04-20T03:48:41;94491.28;;;11.18;54.76
16793;BME280;8513;42.662;23.350;2023-04-20T03:51:07;94503.28;;;11.21;54.96
16793;BME280;8513;42.662;23.350;2023-04-20T03:53:32;94501.63;;;11.28;54.35
16793;BME280;8513;42.662;23.350;2023-04-20T03:55:58;94494.69;;;11.27;53.88
16793;BME280;8513;42.662;23.350;2023-04-20T03:58:23;94503.72;;;11.33;54.13
16793;BME280;8513;42.662;23.350;2023-04-20T04:00:49;94499.94;;;11.35;53.83
16793;BME280;8513;42.662;23.350;2023-04-20T04:03:14;94497.97;;;11.37;54.06
16793;BME280;8513;42.662;23.350;2023-04-20T04:05:40;94503.72;;;11.41;54.07
16793;BME280;8513;42.662;23.350;2023-04-20T04:08:06;94510.31;;;11.37;54.02
16793;BME280;8513;42.662;23.350;2023-04-20T04:10:31;94505.22;;;11.35;53.98
16793;BME280;8513;42.662;23.350;2023-04-20T04:12:57;94513.63;;;11.31;53.99
16793;BME280;8513;42.662;23.350;2023-04-20T04:15:22;94511.84;;;11.23;54.63
16793;BME280;8513;42.662;23.350;2023-04-20T04:17:48;94516.09;;;11.24;54.54
16793;BME280;8513;42.662;23.350;2023-04-20T04:20:13;94513.09;;;11.35;53.31
16793;BME280;8513;42.662;23.350;2023-04-20T04:22:40;94511.50;;;11.26;54.14
16793;BME280;8513;42.662;23.350;2023-04-20T04:25:06;94514.44;;;11.31;53.15
16793;BME280;8513;42.662;23.350;2023-04-20T04:27:32;94520.38;;;11.25;53.06
16793;BME280;8513;42.662;23.350;2023-04-20T04:30:00;94514.78;;;11.20;53.53
16793;BME280;8513;42.662;23.350;2023-04-20T04:32:26;94513.63;;;11.31;53.16
16793;BME280;8513;42.662;23.350;2023-04-20T04:34:52;94512.94;;;11.37;53.03
16793;BME280;8513;42.662;23.350;2023-04-20T04:37:18;94519.84;;;11.38;52.83
16793;BME280;8513;42.662;23.350;2023-04-20T04:39:44;94526.75;;;11.47;52.81
16793;BME280;8513;42.662;23.350;2023-04-20T04:42:09;94513.75;;;11.45;53.11
16793;BME280;8513;42.662;23.350;2023-04-20T04:44:35;94523.28;;;11.46;53.25
16793;BME280;8513;42.662;23.350;2023-04-20T04:47:02;94522.28;;;11.47;52.46
16793;BME280;8513;42.662;23.350;2023-04-20T04:49:27;94527.28;;;11.26;53.48
16793;BME280;8513;42.662;23.350;2023-04-20T04:51:54;94521.84;;;11.27;53.20
16793;BME280;8513;42.662;23.350;2023-04-20T04:54:19;94534.47;;;11.40;52.75
16793;BME280;8513;42.662;23.350;2023-04-20T04:56:45;94530.06;;;11.24;53.29
16793;BME280;8513;42.662;23.350;2023-04-20T04:59:10;94550.56;;;11.54;52.67
16793;BME280;8513;42.662;23.350;2023-04-20T05:01:35;94535.16;;;11.42;52.71
16793;BME280;8513;42.662;23.350;2023-04-20T05:04:01;94540.38;;;11.51;52.64
16793;BME280;8513;42.662;23.350;2023-04-20T05:06:26;94537.78;;;11.42;52.98
16793;BME280;8513;42.662;23.350;2023-04-20T05:08:52;94544.84;;;11.50;52.87
16793;BME280;8513;42.662;23.350;2023-04-20T05:11:17;94540.56;;;11.41;53.33
16793;BME280;8513;42.662;23.350;2023-04-20T05:13:43;94537.78;;;11.42;52.96
16793;BME280;8513;42.662;23.350;2023-04-20T05:16:08;94537.78;;;11.42;53.27
16793;BME280;8513;42.662;23.350;2023-04-20T05:18:34;94534.34;;;11.34;52.97
16793;BME280;8513;42.662;23.350;2023-04-20T05:21:00;94545.22;;;11.31;54.29
16793;BME280;8513;42.662;23.350;2023-04-20T05:23:26;94538.97;;;11.23;54.73
16793;BME280;8513;42.662;23.350;2023-04-20T05:25:51;94541.09;;;11.28;53.33
16793;BME280;8513;42.662;23.350;2023-04-20T05:28:16;94534.19;;;11.27;53.90
16793;BME280;8513;42.662;23.350;2023-04-20T05:30:42;94544.66;;;11.43;53.83
16793;BME280;8513;42.662;23.350;2023-04-20T05:33:08;94543.84;;;11.43;53.79
16793;BME280;8513;42.662;23.350;2023-04-20T05:35:33;94541.84;;;11.61;52.79
16793;BME280;8513;42.662;23.350;2023-04-20T05:38:00;94548.13;;;11.52;52.79
16793;BME280;8513;42.662;23.350;2023-04-20T05:40:28;94555.03;;;11.45;52.93
16793;BME280;8513;42.662;23.350;2023-04-20T05:42:53;94549.91;;;11.52;53.24
16793;BME280;8513;42.662;23.350;2023-04-20T05:45:19;94543.97;;;11.66;53.02
16793;BME280;8513;42.662;23.350;2023-04-20T05:47:56;94549.88;;;11.60;52.60
16793;BME280;8513;42.662;23.350;2023-04-20T05:50:23;94551.53;;;11.69;52.38
16793;BME280;8513;42.662;23.350;2023-04-20T05:52:49;94553.88;;;11.47;53.36
16793;BME280;8513;42.662;23.350;2023-04-20T05:55:14;94554.88;;;11.38;53.61
16793;BME280;8513;42.662;23.350;2023-04-20T05:57:40;94554.41;;;11.35;53.73
16793;BME280;8513;42.662;23.350;2023-04-20T06:00:10;94554.34;;;11.59;53.43
16793;BME280;8513;42.662;23.350;2023-04-20T06:02:36;94550.53;;;11.62;53.25
16793;BME280;8513;42.662;23.350;2023-04-20T06:05:02;94553.53;;;11.51;54.11
16793;BME280;8513;42.662;23.350;2023-04-20T06:07:27;94549.75;;;11.53;54.68
16793;BME280;8513;42.662;23.350;2023-04-20T06:09:53;94554.22;;;11.53;55.70
16793;BME280;8513;42.662;23.350;2023-04-20T06:12:18;94544.03;;;11.50;55.80
16793;BME280;8513;42.662;23.350;2023-04-20T06:14:44;94554.34;;;11.59;55.32
16793;BME280;8513;42.662;23.350;2023-04-20T06:17:09;94547.09;;;11.61;55.79
16793;BME280;8513;42.662;23.350;2023-04-20T06:19:35;94553.84;;;11.64;55.35
16793;BME280;8513;42.662;23.350;2023-04-20T06:22:07;94556.81;;;11.61;55.53
16793;BME280;8513;42.662;23.350;2023-04-20T06:24:33;94557.47;;;11.63;56.09
16793;BME280;8513;42.662;23.350;2023-04-20T06:26:59;94559.38;;;11.85;54.69
16793;BME280;8513;42.662;23.350;2023-04-20T06:29:26;94564.00;;;11.75;55.23
16793;BME280;8513;42.662;23.350;2023-04-20T06:31:51;94561.19;;;11.93;54.55
16793;BME280;8513;42.662;23.350;2023-04-20T06:34:17;94560.22;;;11.86;54.33
16793;BME280;8513;42.662;23.350;2023-04-20T06:36:42;94555.84;;;11.54;55.66
16793;BME280;8513;42.662;23.350;2023-04-20T06:39:08;94556.81;;;11.61;55.78
16793;BME280;8513;42.662;23.350;2023-04-20T06:41:36;94559.03;;;11.80;54.84
16793;BME280;8513;42.662;23.350;2023-04-20T06:44:01;94556.75;;;11.77;54.34
16793;BME280;8513;42.662;23.350;2023-04-20T06:46:27;94571.06;;;11.83;54.57
16793;BME280;8513;42.662;23.350;2023-04-20T06:48:52;94569.25;;;11.83;54.21
16793;BME280;8513;42.662;23.350;2023-04-20T06:51:17;94567.97;;;11.71;54.59
16793;BME280;8513;42.662;23.350;2023-04-20T06:53:43;94573.84;;;11.81;55.04
16793;BME280;8513;42.662;23.350;2023-04-20T06:56:08;94572.91;;;11.74;54.98
16793;BME280;8513;42.662;23.350;2023-04-20T06:58:35;94578.50;;;11.79;55.01
16793;BME280;8513;42.662;23.350;2023-04-20T07:01:01;94580.44;;;11.85;55.15
16793;BME280;8513;42.662;23.350;2023-04-20T07:03:26;94574.81;;;11.97;54.86
16793;BME280;8513;42.662;23.350;2023-04-20T07:05:51;94585.78;;;11.61;56.15
16793;BME280;8513;42.662;23.350;2023-04-20T07:08:17;94589.06;;;11.71;56.28
16793;BME280;8513;42.662;23.350;2023-04-20T07:10:42;94582.09;;;11.78;56.09
16793;BME280;8513;42.662;23.350;2023-04-20T07:13:08;94588.69;;;11.90;56.06
16793;BME280;8513;42.662;23.350;2023-04-20T07:15:33;94590.31;;;11.83;56.45
16793;BME280;8513;42.662;23.350;2023-04-20T07:17:59;94594.56;;;12.01;56.64
16793;BME280;8513;42.662;23.350;2023-04-20T07:20:24;94583.19;;;12.08;55.68
16793;BME280;8513;42.662;23.350;2023-04-20T07:22:49;94587.28;;;12.11;55.44
16793;BME280;8513;42.662;23.350;2023-04-20T07:25:15;94584.94;;;12.24;55.06
16793;BME280;8513;42.662;23.350;2023-04-20T07:27:41;94587.53;;;12.32;54.75
16793;BME280;8513;42.662;23.350;2023-04-20T07:30:08;94589.16;;;12.33;54.48
16793;BME280;8513;42.662;23.350;2023-04-20T07:32:35;94580.50;;;12.48;53.69
16793;BME280;8513;42.662;23.350;2023-04-20T07:35:01;94588.50;;;12.31;54.07
16793;BME280;8513;42.662;23.350;2023-04-20T07:37:28;94589.00;;;12.58;53.03
16793;BME280;8513;42.662;23.350;2023-04-20T07:39:53;94584.50;;;12.44;53.89
16793;BME280;8513;42.662;23.350;2023-04-20T07:42:19;94583.06;;;12.56;53.40
16793;BME280;8513;42.662;23.350;2023-04-20T07:44:46;94573.94;;;12.67;53.18
16793;BME280;8513;42.662;23.350;2023-04-20T07:47:11;94573.66;;;12.85;51.66
16793;BME280;8513;42.662;23.350;2023-04-20T07:49:37;94588.69;;;12.84;51.47
16793;BME280;8513;42.662;23.350;2023-04-20T07:52:05;94576.59;;;12.90;51.59
16793;BME280;8513;42.662;23.350;2023-04-20T07:54:30;94585.47;;;12.97;51.33
16793;BME280;8513;42.662;23.350;2023-04-20T07:56:57;94583.63;;;13.20;51.16
16793;BME280;8513;42.662;23.350;2023-04-20T07:59:23;94577.28;;;13.30;50.00
16793;BME280;8513;42.662;23.350;2023-04-20T08:01:48;94581.38;;;13.09;50.32
16793;BME280;8513;42.662;23.350;2023-04-20T08:04:15;94577.75;;;13.10;50.27
16793;BME280;8513;42.662;23.350;2023-04-20T08:06:40;94583.94;;;13.17;50.24
16793;BME280;8513;42.662;23.350;2023-04-20T08:09:06;94583.13;;;13.17;50.25
16793;BME280;8513;42.662;23.350;2023-04-20T08:11:32;94592.81;;;13.24;50.34
16793;BME280;8513;42.662;23.350;2023-04-20T08:13:57;94588.34;;;13.25;49.97
16793;BME280;8513;42.662;23.350;2023-04-20T08:16:23;94579.16;;;13.21;49.17
16793;BME280;8513;42.662;23.350;2023-04-20T08:18:48;94582.41;;;13.31;49.41
16793;BME280;8513;42.662;23.350;2023-04-20T08:21:14;94579.91;;;13.30;49.67
16793;BME280;8513;42.662;23.350;2023-04-20T08:23:39;94578.06;;;13.53;48.89
16793;BME280;8513;42.662;23.350;2023-04-20T08:26:05;94574.50;;;13.76;48.47
16793;BME280;8513;42.662;23.350;2023-04-20T08:28:30;94573.69;;;13.75;48.42
16793;BME280;8513;42.662;23.350;2023-04-20T08:30:56;94580.16;;;13.87;47.83
16793;BME280;8513;42.662;23.350;2023-04-20T08:33:21;94574.50;;;13.76;47.78
16793;BME280;8513;42.662;23.350;2023-04-20T08:35:49;94572.50;;;13.48;49.22
16793;BME280;8513;42.662;23.350;2023-04-20T08:38:14;94579.50;;;13.71;48.85
16793;BME280;8513;42.662;23.350;2023-04-20T08:40:40;94591.94;;;13.85;48.09
16793;BME280;8513;42.662;23.350;2023-04-20T08:43:05;94583.69;;;13.65;48.75
16793;BME280;8513;42.662;23.350;2023-04-20T08:45:31;94585.28;;;13.74;48.54
16793;BME280;8513;42.662;23.350;2023-04-20T08:48:06;94575.88;;;13.86;48.10
16793;BME280;8513;42.662;23.350;2023-04-20T08:50:35;94584.34;;;14.11;47.41
16793;BME280;8513;42.662;23.350;2023-04-20T08:53:02;94582.88;;;13.94;47.59
16793;BME280;8513;42.662;23.350;2023-04-20T08:55:28;94578.25;;;13.81;47.80
16793;BME280;8513;42.662;23.350;2023-04-20T08:57:54;94586.63;;;13.70;48.45
16793;BME280;8513;42.662;23.350;2023-04-20T09:00:19;94586.88;;;13.60;49.04
16793;BME280;8513;42.662;23.350;2023-04-20T09:02:55;94588.34;;;13.63;48.00
16793;BME280;8513;42.662;23.350;2023-04-20T09:05:29;94587.59;;;13.54;48.11
16793;BME280;8513;42.662;23.350;2023-04-20T09:07:57;94590.31;;;13.08;48.97
16793;BME280;8513;42.662;23.350;2023-04-20T09:10:24;94588.94;;;13.12;49.01
16793;BME280;8513;42.662;23.350;2023-04-20T09:12:50;94586.41;;;13.19;49.25
16793;BME280;8513;42.662;23.350;2023-04-20T09:15:29;94586.03;;;13.07;49.92
16793;BME280;8513;42.662;23.350;2023-04-20T09:17:55;94577.47;;;13.05;49.87
16793;BME280;8513;42.662;23.350;2023-04-20T09:20:32;94584.75;;;13.41;49.41
16793;BME280;8513;42.662;23.350;2023-04-20T09:23:09;94589.41;;;13.39;49.38
16793;BME280;8513;42.662;23.350;2023-04-20T09:25:36;94578.56;;;13.34;49.82
16793;BME280;8513;42.662;23.350;2023-04-20T09:28:01;94577.44;;;13.28;49.70
16793;BME280;8513;42.662;23.350;2023-04-20T09:30:46;94576.41;;;13.82;48.93
16793;BME280;8513;42.662;23.350;2023-04-20T09:33:13;94585.75;;;14.44;46.76
16793;BME280;8513;42.662;23.350;2023-04-20T09:35:40;94579.44;;;14.45;46.43
16793;BME280;8513;42.662;23.350;2023-04-20T09:38:07;94571.63;;;14.22;46.98
16793;BME280;8513;42.662;23.350;2023-04-20T09:40:32;94567.41;;;14.42;46.57
16793;BME280;8513;42.662;23.350;2023-04-20T09:43:03;94577.56;;;14.75;46.18
16793;BME280;8513;42.662;23.350;2023-04-20T09:45:31;94561.75;;;14.82;45.62
16793;BME280;8513;42.662;23.350;2023-04-20T09:47:56;94569.75;;;14.67;45.58
16793;BME280;8513;42.662;23.350;2023-04-20T09:50:22;94555.88;;;14.65;45.93
16793;BME280;8513;42.662;23.350;2023-04-20T09:52:48;94562.44;;;14.90;45.16
16793;BME280;8513;42.662;23.350;2023-04-20T09:55:14;94569.34;;;15.34;44.12
16793;BME280;8513;42.662;23.350;2023-04-20T09:57:40;94573.72;;;15.20;44.24
16793;BME280;8513;42.662;23.350;2023-04-20T10:00:07;94561.28;;;15.42;43.66
16793;BME280;8513;42.662;23.350;2023-04-20T10:02:35;94578.94;;;15.35;44.13
16793;BME280;8513;42.662;23.350;2023-04-20T10:05:00;94559.75;;;15.33;44.05
16793;BME280;8513;42.662;23.350;2023-04-20T10:07:28;94557.38;;;15.17;44.73
16793;BME280;8513;42.662;23.350;2023-04-20T10:12:29;94541.38;;;15.04;44.69
16793;BME280;8513;42.662;23.350;2023-04-20T10:14:55;94550.91;;;15.48;44.39
16793;BME280;8513;42.662;23.350;2023-04-20T10:17:31;94550.03;;;15.40;44.57
16793;BME280;8513;42.662;23.350;2023-04-20T10:19:58;94552.91;;;15.17;44.88
16793;BME280;8513;42.662;23.350;2023-04-20T10:22:31;94539.53;;;15.26;45.19
16793;BME280;8513;42.662;23.350;2023-04-20T10:25:00;94547.16;;;15.35;44.39
16793;BME280;8513;42.662;23.350;2023-04-20T10:27:26;94540.78;;;15.30;44.32
16793;BME280;8513;42.662;23.350;2023-04-20T10:29:52;94547.09;;;15.57;43.83
16793;BME280;8513;42.662;23.350;2023-04-20T10:32:24;94551.53;;;15.21;45.48
16793;BME280;8513;42.662;23.350;2023-04-20T10:35:08;94543.41;;;15.58;44.63
16793;BME280;8513;42.662;23.350;2023-04-20T10:37:46;94543.13;;;15.74;43.44
16793;BME280;8513;42.662;23.350;2023-04-20T10:40:12;94540.56;;;15.87;42.84
16793;BME280;8513;42.662;23.350;2023-04-20T10:42:44;94545.44;;;15.77;43.19
16793;BME280;8513;42.662;23.350;2023-04-20T10:45:10;94537.66;;;15.76;43.44
16793;BME280;8513;42.662;23.350;2023-04-20T10:47:36;94536.91;;;15.88;43.18
16793;BME280;8513;42.662;23.350;2023-04-20T10:50:11;94539.00;;;16.00;42.51
16793;BME280;8513;42.662;23.350;2023-04-20T10:52:39;94539.00;;;16.00;42.27
16793;BME280;8513;42.662;23.350;2023-04-20T10:55:05;94545.38;;;15.71;43.16
16793;BME280;8513;42.662;23.350;2023-04-20T10:57:32;94534.13;;;15.69;43.34
16793;BME280;8513;42.662;23.350;2023-04-20T10:59:58;94536.34;;;15.93;42.80
16793;BME280;8513;42.662;23.350;2023-04-20T11:02:24;94525.41;;;16.16;42.56
16793;BME280;8513;42.662;23.350;2023-04-20T11:04:49;94532.84;;;16.41;41.53
16793;BME280;8513;42.662;23.350;2023-04-20T11:07:15;94521.06;;;16.63;41.47
16793;BME280;8513;42.662;23.350;2023-04-20T11:09:41;94527.00;;;16.72;41.69
16793;BME280;8513;42.662;23.350;2023-04-20T11:12:09;94527.19;;;16.70;40.37
16793;BME280;8513;42.662;23.350;2023-04-20T11:14:55;94517.88;;;16.88;40.11
16793;BME280;8513;42.662;23.350;2023-04-20T11:17:34;94520.13;;;17.04;40.17
16793;BME280;8513;42.662;23.350;2023-04-20T11:20:07;94528.91;;;17.18;39.22
16793;BME280;8513;42.662;23.350;2023-04-20T11:22:41;94521.16;;;17.16;39.92
16793;BME280;8513;42.662;23.350;2023-04-20T11:25:08;94516.63;;;16.90;40.96
16793;BME280;8513;42.662;23.350;2023-04-20T11:27:35;94517.16;;;16.59;41.00
16793;BME280;8513;42.662;23.350;2023-04-20T11:30:02;94517.25;;;16.86;40.54
16793;BME280;8513;42.662;23.350;2023-04-20T11:32:31;94520.72;;;17.00;40.73
16793;BME280;8513;42.662;23.350;2023-04-20T11:35:03;94515.00;;;17.09;40.16
16793;BME280;8513;42.662;23.350;2023-04-20T11:37:44;94506.94;;;16.56;40.62
16793;BME280;8513;42.662;23.350;2023-04-20T11:40:11;94511.03;;;16.59;41.51
16793;BME280;8513;42.662;23.350;2023-04-20T11:42:37;94502.06;;;15.92;42.91
16793;BME280;8513;42.662;23.350;2023-04-20T11:45:04;94505.88;;;16.30;41.87
16793;BME280;8513;42.662;23.350;2023-04-20T11:47:29;94491.25;;;16.54;40.83
16793;BME280;8513;42.662;23.350;2023-04-20T11:49:55;94503.06;;;16.39;40.55
16793;BME280;8513;42.662;23.350;2023-04-20T11:52:20;94496.53;;;16.48;41.78
16793;BME280;8513;42.662;23.350;2023-04-20T11:54:45;94501.31;;;16.79;41.00
16793;BME280;8513;42.662;23.350;2023-04-20T11:57:11;94493.75;;;16.83;39.89
16793;BME280;8513;42.662;23.350;2023-04-20T11:59:36;94500.09;;;16.88;40.79
16793;BME280;8513;42.662;23.350;2023-04-20T12:02:02;94487.81;;;16.81;39.31
16793;BME280;8513;42.662;23.350;2023-04-20T12:04:29;94489.28;;;16.90;39.44
16793;BME280;8513;42.662;23.350;2023-04-20T12:06:55;94485.78;;;16.08;41.48
16793;BME280;8513;42.662;23.350;2023-04-20T12:09:22;94493.84;;;16.35;40.79
16793;BME280;8513;42.662;23.350;2023-04-20T12:11:48;94494.47;;;16.37;40.16
16793;BME280;8513;42.662;23.350;2023-04-20T12:14:13;94491.81;;;16.43;40.24
16793;BME280;8513;42.662;23.350;2023-04-20T12:16:39;94494.44;;;16.30;40.71
16793;BME280;8513;42.662;23.350;2023-04-20T12:19:04;94488.53;;;16.35;40.71
16793;BME280;8513;42.662;23.350;2023-04-20T12:21:29;94493.66;;;16.36;40.68
16793;BME280;8513;42.662;23.350;2023-04-20T12:23:56;94499.63;;;15.97;41.77
16793;BME280;8513;42.662;23.350;2023-04-20T12:26:22;94497.97;;;15.89;42.59
16793;BME280;8513;42.662;23.350;2023-04-20T12:28:48;94504.44;;;15.80;42.80
16793;BME280;8513;42.662;23.350;2023-04-20T12:31:13;94496.06;;;15.76;43.11
16793;BME280;8513;42.662;23.350;2023-04-20T12:33:38;94490.88;;;15.68;42.95
16793;BME280;8513;42.662;23.350;2023-04-20T12:36:04;94503.09;;;15.62;43.43
16793;BME280;8513;42.662;23.350;2023-04-20T12:38:30;94491.91;;;15.67;42.95
16793;BME280;8513;42.662;23.350;2023-04-20T12:40:55;94492.06;;;15.59;43.79
16793;BME280;8513;42.662;23.350;2023-04-20T12:43:21;94483.59;;;15.42;43.57
16793;BME280;8513;42.662;23.350;2023-04-20T12:45:46;94485.72;;;15.53;44.06
16793;BME280;8513;42.662;23.350;2023-04-20T12:48:12;94488.72;;;15.78;42.66
16793;BME280;8513;42.662;23.350;2023-04-20T12:50:38;94488.00;;;15.98;43.04
16793;BME280;8513;42.662;23.350;2023-04-20T12:53:03;94474.06;;;16.57;40.96
16793;BME280;8513;42.662;23.350;2023-04-20T12:55:29;94478.19;;;16.66;40.94
16793;BME280;8513;42.662;23.350;2023-04-20T12:57:54;94474.13;;;17.10;40.52